sensor_id;sensor_type;location;lat;lon;timestamp;temperature;humidity
3684;DHT22;1858;48.716;9.648;2023-08-01T00:00:05;19.00;1.00
3684;DHT22;1858;48.716;9.648;2023-08-01T00:02:54;19.00;1.00
3684;DHT22;1858;48.716;9.648;2023-08-01T00:05:41;19.00;1.00
3684;DHT22;1858;48.716;9.648;2023-08-01T00:08:29;19.00;1.00
3684;DHT22;1858;48.716;9.648;2023-08-01T00:11:34;19.00;16.40
3684;DHT22;1858;48.716;9.648;2023-08-01T00:14:21;19.00;1.00
3684;DHT22;1858;48.716;9.648;2023-08-01T00:17:09;19.00;1.00
3684;DHT22;1858;48.716;9.648;2023-08-01T00:19:56;18.90;1.00
3684;DHT22;1858;48.716;9.648;2023-08-01T00:22:42;19.00;99.90
3684;DHT22;1858;48.716;9.648;2023-08-01T00:25:29;19.00;99.90
3684;DHT22;1858;48.716;9.648;2023-08-01T00:28:15;19.00;99.90
3684;DHT22;1858;48.716;9.648;2023-08-01T00:31:06;18.90;99.90
3684;DHT22;1858;48.716;9.648;2023-08-01T00:33:53;19.00;99.90
3684;DHT22;1858;48.716;9.648;2023-08-01T00:36:40;19.00;99.90
3684;DHT22;1858;48.716;9.648;2023-08-01T00:39:26;19.00;36.40
3684;DHT22;1858;48.716;9.648;2023-08-01T00:42:13;19.00;99.90
3684;DHT22;1858;48.716;9.648;2023-08-01T00:44:59;18.90;99.90
3684;DHT22;1858;48.716;9.648;2023-08-01T00:47:46;18.90;41.00
3684;DHT22;1858;48.716;9.648;2023-08-01T00:50:33;18.80;58.60
3684;DHT22;1858;48.716;9.648;2023-08-01T00:53:19;18.80;99.90
3684;DHT22;1858;48.716;9.648;2023-08-01T00:56:25;18.60;99.90
3684;DHT22;1858;48.716;9.648;2023-08-01T01:02:20;18.60;99.90
3684;DHT22;1858;48.716;9.648;2023-08-01T01:05:07;18.70;99.90
3684;DHT22;1858;48.716;9.648;2023-08-01T01:07:54;18.70;99.90
3684;DHT22;1858;48.716;9.648;2023-08-01T01:10:41;18.60;99.90
3684;DHT22;1858;48.716;9.648;2023-08-01T01:13:28;18.50;99.90
3684;DHT22;1858;48.716;9.648;2023-08-01T01:16:14;18.50;1.00
3684;DHT22;1858;48.716;9.648;2023-08-01T01:19:01;18.60;1.00
3684;DHT22;1858;48.716;9.648;2023-08-01T01:21:48;18.60;1.00
3684;DHT22;1858;48.716;9.648;2023-08-01T01:24:35;18.60;1.00
3684;DHT22;1858;48.716;9.648;2023-08-01T01:27:23;18.60;99.90
3684;DHT22;1858;48.716;9.648;2023-08-01T01:30:10;18.60;99.90
3684;DHT22;1858;48.716;9.648;2023-08-01T01:32:58;18.60;99.90
3684;DHT22;1858;48.716;9.648;2023-08-01T01:35:44;18.60;1.00
3684;DHT22;1858;48.716;9.648;2023-08-01T01:38:30;18.60;1.00
3684;DHT22;1858;48.716;9.648;2023-08-01T01:41:16;18.60;1.00
3684;DHT22;1858;48.716;9.648;2023-08-01T01:44:03;18.50;1.00
3684;DHT22;1858;48.716;9.648;2023-08-01T01:46:49;18.50;1.00
3684;DHT22;1858;48.716;9.648;2023-08-01T01:49:35;18.40;1.00
3684;DHT22;1858;48.716;9.648;2023-08-01T01:52:21;18.50;1.00
3684;DHT22;1858;48.716;9.648;2023-08-01T01:55:08;18.40;1.00
3684;DHT22;1858;48.716;9.648;2023-08-01T01:57:54;18.50;1.00
3684;DHT22;1858;48.716;9.648;2023-08-01T02:00:40;18.60;99.90
3684;DHT22;1858;48.716;9.648;2023-08-01T02:03:27;18.50;99.90
3684;DHT22;1858;48.716;9.648;2023-08-01T02:06:13;18.50;99.90
3684;DHT22;1858;48.716;9.648;2023-08-01T02:09:00;18.30;29.30
3684;DHT22;1858;48.716;9.648;2023-08-01T02:11:46;18.40;1.00
3684;DHT22;1858;48.716;9.648;2023-08-01T02:14:32;18.40;18.00
3684;DHT22;1858;48.716;9.648;2023-08-01T02:17:18;18.40;16.40
3684;DHT22;1858;48.716;9.648;2023-08-01T02:20:05;18.30;1.00
3684;DHT22;1858;48.716;9.648;2023-08-01T02:22:53;18.30;1.00
3684;DHT22;1858;48.716;9.648;2023-08-01T02:25:40;18.30;1.00
3684;DHT22;1858;48.716;9.648;2023-08-01T02:28:26;18.30;1.00
3684;DHT22;1858;48.716;9.648;2023-08-01T02:31:12;18.30;99.90
3684;DHT22;1858;48.716;9.648;2023-08-01T02:33:58;18.40;99.90
3684;DHT22;1858;48.716;9.648;2023-08-01T02:36:44;18.50;99.90
3684;DHT22;1858;48.716;9.648;2023-08-01T02:39:30;18.30;1.00
3684;DHT22;1858;48.716;9.648;2023-08-01T02:42:15;18.30;63.10
3684;DHT22;1858;48.716;9.648;2023-08-01T02:45:01;18.40;99.90
3684;DHT22;1858;48.716;9.648;2023-08-01T02:47:46;18.40;99.90
3684;DHT22;1858;48.716;9.648;2023-08-01T02:50:32;18.50;99.90
3684;DHT22;1858;48.716;9.648;2023-08-01T02:53:38;18.50;99.90
3684;DHT22;1858;48.716;9.648;2023-08-01T02:56:25;18.60;99.90
3684;DHT22;1858;48.716;9.648;2023-08-01T02:59:32;18.60;99.90
3684;DHT22;1858;48.716;9.648;2023-08-01T03:05:23;18.40;1.00
3684;DHT22;1858;48.716;9.648;2023-08-01T03:08:09;18.40;1.00
3684;DHT22;1858;48.716;9.648;2023-08-01T03:10:55;18.40;1.00
3684;DHT22;1858;48.716;9.648;2023-08-01T03:13:40;18.40;1.00
3684;DHT22;1858;48.716;9.648;2023-08-01T03:16:26;18.40;1.00
3684;DHT22;1858;48.716;9.648;2023-08-01T03:19:12;18.20;99.90
3684;DHT22;1858;48.716;9.648;2023-08-01T03:21:58;18.30;99.90
3684;DHT22;1858;48.716;9.648;2023-08-01T03:24:45;18.10;99.90
3684;DHT22;1858;48.716;9.648;2023-08-01T03:27:51;18.20;99.90
3684;DHT22;1858;48.716;9.648;2023-08-01T03:30:37;18.20;1.00
3684;DHT22;1858;48.716;9.648;2023-08-01T03:33:24;18.30;95.90
3684;DHT22;1858;48.716;9.648;2023-08-01T03:36:29;18.20;99.90
3684;DHT22;1858;48.716;9.648;2023-08-01T03:39:15;18.20;30.10
3684;DHT22;1858;48.716;9.648;2023-08-01T03:42:01;18.40;99.90
3684;DHT22;1858;48.716;9.648;2023-08-01T03:44:47;18.40;99.90
3684;DHT22;1858;48.716;9.648;2023-08-01T03:47:33;18.60;99.90
3684;DHT22;1858;48.716;9.648;2023-08-01T03:50:39;18.60;99.90
3684;DHT22;1858;48.716;9.648;2023-08-01T03:53:26;18.60;99.90
3684;DHT22;1858;48.716;9.648;2023-08-01T03:56:12;18.60;99.90
3684;DHT22;1858;48.716;9.648;2023-08-01T03:58:58;18.60;99.90
3684;DHT22;1858;48.716;9.648;2023-08-01T04:01:44;18.50;99.90
3684;DHT22;1858;48.716;9.648;2023-08-01T04:04:30;18.40;99.90
3684;DHT22;1858;48.716;9.648;2023-08-01T04:07:16;18.30;27.80
3684;DHT22;1858;48.716;9.648;2023-08-01T04:10:04;18.20;1.00
3684;DHT22;1858;48.716;9.648;2023-08-01T04:12:51;18.20;99.90
3684;DHT22;1858;48.716;9.648;2023-08-01T04:15:37;18.20;1.00
3684;DHT22;1858;48.716;9.648;2023-08-01T04:18:23;18.20;1.00
3684;DHT22;1858;48.716;9.648;2023-08-01T04:21:09;18.20;1.00
3684;DHT22;1858;48.716;9.648;2023-08-01T04:23:56;18.30;1.00
3684;DHT22;1858;48.716;9.648;2023-08-01T04:26:42;18.30;1.00
3684;DHT22;1858;48.716;9.648;2023-08-01T04:29:28;18.40;1.00
3684;DHT22;1858;48.716;9.648;2023-08-01T04:32:13;18.40;99.90
3684;DHT22;1858;48.716;9.648;2023-08-01T04:35:00;18.50;1.00
3684;DHT22;1858;48.716;9.648;2023-08-01T04:37:46;18.50;1.00
3684;DHT22;1858;48.716;9.648;2023-08-01T04:40:33;18.60;99.90
3684;DHT22;1858;48.716;9.648;2023-08-01T04:43:19;18.60;99.90
3684;DHT22;1858;48.716;9.648;2023-08-01T04:46:05;18.70;85.30
3684;DHT22;1858;48.716;9.648;2023-08-01T04:48:51;18.60;1.00
3684;DHT22;1858;48.716;9.648;2023-08-01T04:51:37;18.60;1.00
3684;DHT22;1858;48.716;9.648;2023-08-01T04:54:24;18.70;1.00
3684;DHT22;1858;48.716;9.648;2023-08-01T04:57:10;18.80;99.90
3684;DHT22;1858;48.716;9.648;2023-08-01T05:00:16;19.10;99.90
3684;DHT22;1858;48.716;9.648;2023-08-01T05:03:03;19.10;99.90
3684;DHT22;1858;48.716;9.648;2023-08-01T05:05:49;19.30;99.90
3684;DHT22;1858;48.716;9.648;2023-08-01T05:08:35;19.50;99.90
3684;DHT22;1858;48.716;9.648;2023-08-01T05:11:22;19.50;30.50
3684;DHT22;1858;48.716;9.648;2023-08-01T05:14:09;19.60;11.40
3684;DHT22;1858;48.716;9.648;2023-08-01T05:16:54;19.70;1.00
3684;DHT22;1858;48.716;9.648;2023-08-01T05:22:45;20.00;1.00
3684;DHT22;1858;48.716;9.648;2023-08-01T05:25:31;20.00;1.00
3684;DHT22;1858;48.716;9.648;2023-08-01T05:28:16;20.00;1.00
3684;DHT22;1858;48.716;9.648;2023-08-01T05:31:03;20.00;1.00
3684;DHT22;1858;48.716;9.648;2023-08-01T05:33:48;20.00;1.00
3684;DHT22;1858;48.716;9.648;2023-08-01T05:36:34;20.00;1.00
3684;DHT22;1858;48.716;9.648;2023-08-01T05:39:21;20.00;1.00
3684;DHT22;1858;48.716;9.648;2023-08-01T05:42:07;20.00;1.00
3684;DHT22;1858;48.716;9.648;2023-08-01T05:44:54;20.20;1.00
3684;DHT22;1858;48.716;9.648;2023-08-01T05:47:41;20.20;1.00
3684;DHT22;1858;48.716;9.648;2023-08-01T05:50:28;20.30;1.00
3684;DHT22;1858;48.716;9.648;2023-08-01T05:53:15;20.20;1.00
3684;DHT22;1858;48.716;9.648;2023-08-01T05:56:01;20.30;1.00
3684;DHT22;1858;48.716;9.648;2023-08-01T05:58:48;20.40;1.00
3684;DHT22;1858;48.716;9.648;2023-08-01T06:01:36;20.20;1.00
3684;DHT22;1858;48.716;9.648;2023-08-01T06:04:23;20.20;1.00
3684;DHT22;1858;48.716;9.648;2023-08-01T06:07:09;20.40;1.00
3684;DHT22;1858;48.716;9.648;2023-08-01T06:09:55;20.40;1.00
3684;DHT22;1858;48.716;9.648;2023-08-01T06:12:43;20.40;1.00
3684;DHT22;1858;48.716;9.648;2023-08-01T06:15:30;20.40;1.00
3684;DHT22;1858;48.716;9.648;2023-08-01T06:18:16;20.20;1.00
3684;DHT22;1858;48.716;9.648;2023-08-01T06:21:03;20.30;1.00
3684;DHT22;1858;48.716;9.648;2023-08-01T06:23:49;20.20;1.00
3684;DHT22;1858;48.716;9.648;2023-08-01T06:26:36;20.20;1.00
3684;DHT22;1858;48.716;9.648;2023-08-01T06:29:22;20.10;1.00
3684;DHT22;1858;48.716;9.648;2023-08-01T06:32:10;20.00;1.00
3684;DHT22;1858;48.716;9.648;2023-08-01T06:34:56;20.10;1.00
3684;DHT22;1858;48.716;9.648;2023-08-01T06:37:42;20.10;1.00
3684;DHT22;1858;48.716;9.648;2023-08-01T06:40:29;20.20;1.00
3684;DHT22;1858;48.716;9.648;2023-08-01T06:43:15;20.40;1.00
3684;DHT22;1858;48.716;9.648;2023-08-01T06:46:02;20.50;99.90
3684;DHT22;1858;48.716;9.648;2023-08-01T06:48:48;20.60;99.90
3684;DHT22;1858;48.716;9.648;2023-08-01T06:51:35;20.60;99.90
3684;DHT22;1858;48.716;9.648;2023-08-01T06:54:21;20.50;99.90
3684;DHT22;1858;48.716;9.648;2023-08-01T06:57:07;20.50;99.90
3684;DHT22;1858;48.716;9.648;2023-08-01T06:59:53;20.40;99.90
3684;DHT22;1858;48.716;9.648;2023-08-01T07:02:40;20.30;99.90
3684;DHT22;1858;48.716;9.648;2023-08-01T07:05:26;20.30;99.90
3684;DHT22;1858;48.716;9.648;2023-08-01T07:08:11;20.30;99.90
3684;DHT22;1858;48.716;9.648;2023-08-01T07:10:57;19.90;1.00
3684;DHT22;1858;48.716;9.648;2023-08-01T07:13:43;20.10;1.00
3684;DHT22;1858;48.716;9.648;2023-08-01T07:16:29;20.10;1.00
3684;DHT22;1858;48.716;9.648;2023-08-01T07:19:15;19.90;1.00
3684;DHT22;1858;48.716;9.648;2023-08-01T07:22:02;19.80;1.00
3684;DHT22;1858;48.716;9.648;2023-08-01T07:24:53;19.70;1.00
3684;DHT22;1858;48.716;9.648;2023-08-01T07:27:38;19.60;1.00
3684;DHT22;1858;48.716;9.648;2023-08-01T07:30:25;19.70;1.00
3684;DHT22;1858;48.716;9.648;2023-08-01T07:33:11;19.70;1.00
3684;DHT22;1858;48.716;9.648;2023-08-01T07:35:57;19.80;1.00
3684;DHT22;1858;48.716;9.648;2023-08-01T07:38:42;19.70;1.00
3684;DHT22;1858;48.716;9.648;2023-08-01T07:41:29;19.80;1.00
3684;DHT22;1858;48.716;9.648;2023-08-01T07:44:15;19.80;1.00
3684;DHT22;1858;48.716;9.648;2023-08-01T07:47:00;19.90;1.00
3684;DHT22;1858;48.716;9.648;2023-08-01T07:49:46;20.00;1.00
3684;DHT22;1858;48.716;9.648;2023-08-01T07:52:32;20.00;1.00
3684;DHT22;1858;48.716;9.648;2023-08-01T07:55:18;20.00;1.00
3684;DHT22;1858;48.716;9.648;2023-08-01T07:58:06;20.20;1.00
3684;DHT22;1858;48.716;9.648;2023-08-01T08:00:52;20.30;1.00
3684;DHT22;1858;48.716;9.648;2023-08-01T08:03:39;20.30;1.00
3684;DHT22;1858;48.716;9.648;2023-08-01T08:06:25;20.30;1.00
3684;DHT22;1858;48.716;9.648;2023-08-01T08:09:11;20.40;1.00
3684;DHT22;1858;48.716;9.648;2023-08-01T08:15:03;20.10;1.00
3684;DHT22;1858;48.716;9.648;2023-08-01T08:17:49;20.00;1.00
3684;DHT22;1858;48.716;9.648;2023-08-01T08:20:41;19.90;1.00
3684;DHT22;1858;48.716;9.648;2023-08-01T08:23:22;19.60;1.00
3684;DHT22;1858;48.716;9.648;2023-08-01T08:26:09;19.20;99.90
3684;DHT22;1858;48.716;9.648;2023-08-01T08:28:55;19.40;99.90
3684;DHT22;1858;48.716;9.648;2023-08-01T08:31:41;19.30;99.90
3684;DHT22;1858;48.716;9.648;2023-08-01T08:34:27;19.10;1.00
3684;DHT22;1858;48.716;9.648;2023-08-01T08:37:14;19.10;1.00
3684;DHT22;1858;48.716;9.648;2023-08-01T08:40:00;19.00;1.00
3684;DHT22;1858;48.716;9.648;2023-08-01T08:42:46;18.90;1.00
3684;DHT22;1858;48.716;9.648;2023-08-01T08:45:35;18.90;1.00
3684;DHT22;1858;48.716;9.648;2023-08-01T08:48:21;18.90;16.90
3684;DHT22;1858;48.716;9.648;2023-08-01T08:51:08;18.80;99.90
3684;DHT22;1858;48.716;9.648;2023-08-01T08:53:56;18.60;99.90
3684;DHT22;1858;48.716;9.648;2023-08-01T08:56:43;18.70;99.90
3684;DHT22;1858;48.716;9.648;2023-08-01T08:59:30;18.80;99.90
3684;DHT22;1858;48.716;9.648;2023-08-01T09:02:16;19.00;99.90
3684;DHT22;1858;48.716;9.648;2023-08-01T09:05:03;19.00;99.90
3684;DHT22;1858;48.716;9.648;2023-08-01T09:07:50;19.00;99.90
3684;DHT22;1858;48.716;9.648;2023-08-01T09:10:58;18.90;1.00
3684;DHT22;1858;48.716;9.648;2023-08-01T09:13:44;18.90;99.90
3684;DHT22;1858;48.716;9.648;2023-08-01T09:16:32;18.90;99.90
3684;DHT22;1858;48.716;9.648;2023-08-01T09:19:20;18.90;99.90
3684;DHT22;1858;48.716;9.648;2023-08-01T09:22:10;19.10;99.90
3684;DHT22;1858;48.716;9.648;2023-08-01T09:24:56;19.60;1.00
3684;DHT22;1858;48.716;9.648;2023-08-01T09:27:41;20.10;1.00
3684;DHT22;1858;48.716;9.648;2023-08-01T09:30:28;20.60;99.90
3684;DHT22;1858;48.716;9.648;2023-08-01T09:33:14;21.00;99.90
3684;DHT22;1858;48.716;9.648;2023-08-01T09:36:01;21.20;99.90
3684;DHT22;1858;48.716;9.648;2023-08-01T09:38:49;21.30;99.90
3684;DHT22;1858;48.716;9.648;2023-08-01T09:41:36;21.20;99.90
3684;DHT22;1858;48.716;9.648;2023-08-01T09:44:22;20.90;99.90
3684;DHT22;1858;48.716;9.648;2023-08-01T09:47:09;20.90;99.90
3684;DHT22;1858;48.716;9.648;2023-08-01T09:50:22;21.00;99.90
3684;DHT22;1858;48.716;9.648;2023-08-01T09:53:09;21.00;99.90
3684;DHT22;1858;48.716;9.648;2023-08-01T09:55:58;21.00;99.90
3684;DHT22;1858;48.716;9.648;2023-08-01T09:58:45;20.80;99.90
3684;DHT22;1858;48.716;9.648;2023-08-01T10:01:51;20.90;99.90
3684;DHT22;1858;48.716;9.648;2023-08-01T10:04:39;20.90;99.90
3684;DHT22;1858;48.716;9.648;2023-08-01T10:07:28;20.80;99.90
3684;DHT22;1858;48.716;9.648;2023-08-01T10:10:14;21.00;99.90
3684;DHT22;1858;48.716;9.648;2023-08-01T10:13:02;21.20;99.90
3684;DHT22;1858;48.716;9.648;2023-08-01T10:15:48;21.30;99.90
3684;DHT22;1858;48.716;9.648;2023-08-01T10:18:40;21.20;99.90
3684;DHT22;1858;48.716;9.648;2023-08-01T10:21:27;21.10;99.90
3684;DHT22;1858;48.716;9.648;2023-08-01T10:24:14;21.20;99.90
3684;DHT22;1858;48.716;9.648;2023-08-01T10:30:28;21.10;99.90
3684;DHT22;1858;48.716;9.648;2023-08-01T10:33:11;21.00;99.90
3684;DHT22;1858;48.716;9.648;2023-08-01T10:35:59;21.10;99.90
3684;DHT22;1858;48.716;9.648;2023-08-01T10:41:35;21.40;99.90
3684;DHT22;1858;48.716;9.648;2023-08-01T10:44:23;21.50;99.90
3684;DHT22;1858;48.716;9.648;2023-08-01T10:47:09;21.60;99.90
3684;DHT22;1858;48.716;9.648;2023-08-01T10:49:55;21.30;99.90
3684;DHT22;1858;48.716;9.648;2023-08-01T10:52:42;21.30;99.90
3684;DHT22;1858;48.716;9.648;2023-08-01T10:55:45;21.30;99.90
3684;DHT22;1858;48.716;9.648;2023-08-01T10:58:31;21.20;99.90
3684;DHT22;1858;48.716;9.648;2023-08-01T11:01:17;21.20;99.90
3684;DHT22;1858;48.716;9.648;2023-08-01T11:04:13;21.30;1.00
3684;DHT22;1858;48.716;9.648;2023-08-01T11:06:54;21.40;99.90
3684;DHT22;1858;48.716;9.648;2023-08-01T11:09:40;21.70;99.90
3684;DHT22;1858;48.716;9.648;2023-08-01T11:12:27;22.70;99.90
3684;DHT22;1858;48.716;9.648;2023-08-01T11:15:13;23.50;1.00
3684;DHT22;1858;48.716;9.648;2023-08-01T11:17:59;24.30;1.00
3684;DHT22;1858;48.716;9.648;2023-08-01T11:20:45;24.20;1.00
3684;DHT22;1858;48.716;9.648;2023-08-01T11:23:32;24.70;1.00
3684;DHT22;1858;48.716;9.648;2023-08-01T11:26:18;24.40;99.90
3684;DHT22;1858;48.716;9.648;2023-08-01T11:29:24;24.30;99.90
3684;DHT22;1858;48.716;9.648;2023-08-01T11:32:10;24.50;99.90
3684;DHT22;1858;48.716;9.648;2023-08-01T11:34:57;24.50;99.90
3684;DHT22;1858;48.716;9.648;2023-08-01T11:37:43;24.80;99.90
3684;DHT22;1858;48.716;9.648;2023-08-01T11:40:49;24.60;99.90
3684;DHT22;1858;48.716;9.648;2023-08-01T11:43:43;24.40;99.90
3684;DHT22;1858;48.716;9.648;2023-08-01T11:46:33;24.30;99.90
3684;DHT22;1858;48.716;9.648;2023-08-01T11:49:20;24.30;99.90
3684;DHT22;1858;48.716;9.648;2023-08-01T11:52:27;24.20;99.90
3684;DHT22;1858;48.716;9.648;2023-08-01T11:55:22;24.00;99.90
3684;DHT22;1858;48.716;9.648;2023-08-01T11:58:00;23.70;99.90
3684;DHT22;1858;48.716;9.648;2023-08-01T12:00:46;23.40;99.90
3684;DHT22;1858;48.716;9.648;2023-08-01T12:03:32;23.40;99.90
3684;DHT22;1858;48.716;9.648;2023-08-01T12:06:19;23.40;99.90
3684;DHT22;1858;48.716;9.648;2023-08-01T12:09:11;23.60;99.90
3684;DHT22;1858;48.716;9.648;2023-08-01T12:11:59;23.80;99.90
3684;DHT22;1858;48.716;9.648;2023-08-01T12:14:45;23.90;99.90
3684;DHT22;1858;48.716;9.648;2023-08-01T12:17:31;23.90;99.90
3684;DHT22;1858;48.716;9.648;2023-08-01T12:20:17;23.80;99.90
3684;DHT22;1858;48.716;9.648;2023-08-01T12:23:04;23.30;99.90
3684;DHT22;1858;48.716;9.648;2023-08-01T12:25:51;23.50;99.90
3684;DHT22;1858;48.716;9.648;2023-08-01T12:28:37;23.60;99.90
3684;DHT22;1858;48.716;9.648;2023-08-01T12:31:23;23.80;99.90
3684;DHT22;1858;48.716;9.648;2023-08-01T12:34:09;23.90;99.90
3684;DHT22;1858;48.716;9.648;2023-08-01T12:36:56;24.00;99.90
3684;DHT22;1858;48.716;9.648;2023-08-01T12:39:42;24.10;99.90
3684;DHT22;1858;48.716;9.648;2023-08-01T12:42:29;24.20;99.90
3684;DHT22;1858;48.716;9.648;2023-08-01T12:45:15;24.10;99.90
3684;DHT22;1858;48.716;9.648;2023-08-01T12:48:02;24.00;99.90
3684;DHT22;1858;48.716;9.648;2023-08-01T12:50:51;24.10;99.90
3684;DHT22;1858;48.716;9.648;2023-08-01T12:53:38;24.10;98.90
3684;DHT22;1858;48.716;9.648;2023-08-01T12:56:25;24.20;99.90
3684;DHT22;1858;48.716;9.648;2023-08-01T12:59:11;24.00;99.90
3684;DHT22;1858;48.716;9.648;2023-08-01T13:02:17;23.80;74.00
3684;DHT22;1858;48.716;9.648;2023-08-01T13:05:05;23.80;99.90
3684;DHT22;1858;48.716;9.648;2023-08-01T13:07:51;23.90;78.50
3684;DHT22;1858;48.716;9.648;2023-08-01T13:10:38;23.80;77.40
3684;DHT22;1858;48.716;9.648;2023-08-01T13:13:24;24.00;55.50
3684;DHT22;1858;48.716;9.648;2023-08-01T13:16:10;24.10;72.20
3684;DHT22;1858;48.716;9.648;2023-08-01T13:18:57;24.00;71.20
3684;DHT22;1858;48.716;9.648;2023-08-01T13:21:43;24.30;66.50
3684;DHT22;1858;48.716;9.648;2023-08-01T13:24:29;24.30;38.50
3684;DHT22;1858;48.716;9.648;2023-08-01T13:27:15;24.40;62.80
3684;DHT22;1858;48.716;9.648;2023-08-01T13:30:02;24.50;33.60
3684;DHT22;1858;48.716;9.648;2023-08-01T13:32:49;24.50;48.00
3684;DHT22;1858;48.716;9.648;2023-08-01T13:35:36;24.30;51.70
3684;DHT22;1858;48.716;9.648;2023-08-01T13:38:22;24.30;38.10
3684;DHT22;1858;48.716;9.648;2023-08-01T13:41:08;24.00;30.30
3684;DHT22;1858;48.716;9.648;2023-08-01T13:44:14;24.00;43.40
3684;DHT22;1858;48.716;9.648;2023-08-01T13:47:00;24.00;33.50
3684;DHT22;1858;48.716;9.648;2023-08-01T13:49:49;23.80;21.90
3684;DHT22;1858;48.716;9.648;2023-08-01T13:52:37;23.80;27.70
3684;DHT22;1858;48.716;9.648;2023-08-01T13:55:24;23.70;45.50
3684;DHT22;1858;48.716;9.648;2023-08-01T13:58:10;23.60;40.90
3684;DHT22;1858;48.716;9.648;2023-08-01T14:01:02;23.50;41.50
3684;DHT22;1858;48.716;9.648;2023-08-01T14:03:49;23.50;27.20
3684;DHT22;1858;48.716;9.648;2023-08-01T14:06:36;23.50;9.80
3684;DHT22;1858;48.716;9.648;2023-08-01T14:09:22;23.70;18.20
3684;DHT22;1858;48.716;9.648;2023-08-01T14:12:09;23.70;18.10
3684;DHT22;1858;48.716;9.648;2023-08-01T14:14:55;23.80;36.70
3684;DHT22;1858;48.716;9.648;2023-08-01T14:17:41;23.90;17.00
3684;DHT22;1858;48.716;9.648;2023-08-01T14:20:28;24.10;11.90
3684;DHT22;1858;48.716;9.648;2023-08-01T14:23:14;24.10;14.70
3684;DHT22;1858;48.716;9.648;2023-08-01T14:26:01;24.20;22.80
3684;DHT22;1858;48.716;9.648;2023-08-01T14:28:48;24.30;20.40
3684;DHT22;1858;48.716;9.648;2023-08-01T14:31:35;24.40;5.00
3684;DHT22;1858;48.716;9.648;2023-08-01T14:34:41;24.40;15.30
3684;DHT22;1858;48.716;9.648;2023-08-01T14:37:27;24.40;17.20
3684;DHT22;1858;48.716;9.648;2023-08-01T14:40:15;24.10;6.40
3684;DHT22;1858;48.716;9.648;2023-08-01T14:43:02;24.10;1.00
3684;DHT22;1858;48.716;9.648;2023-08-01T14:45:48;24.10;1.00
3684;DHT22;1858;48.716;9.648;2023-08-01T14:48:35;24.00;8.00
3684;DHT22;1858;48.716;9.648;2023-08-01T14:51:21;23.90;1.00
3684;DHT22;1858;48.716;9.648;2023-08-01T14:54:08;24.00;1.00
3684;DHT22;1858;48.716;9.648;2023-08-01T14:56:55;24.10;1.00
3684;DHT22;1858;48.716;9.648;2023-08-01T14:59:42;24.00;1.00
3684;DHT22;1858;48.716;9.648;2023-08-01T15:02:29;24.00;1.00
3684;DHT22;1858;48.716;9.648;2023-08-01T15:05:15;24.00;1.70
3684;DHT22;1858;48.716;9.648;2023-08-01T15:08:21;23.90;1.00
3684;DHT22;1858;48.716;9.648;2023-08-01T15:11:09;23.90;1.00
3684;DHT22;1858;48.716;9.648;2023-08-01T15:13:55;23.90;1.00
3684;DHT22;1858;48.716;9.648;2023-08-01T15:16:41;24.00;1.00
3684;DHT22;1858;48.716;9.648;2023-08-01T15:19:28;24.30;1.00
3684;DHT22;1858;48.716;9.648;2023-08-01T15:22:16;24.20;1.00
3684;DHT22;1858;48.716;9.648;2023-08-01T15:25:04;24.10;1.00
3684;DHT22;1858;48.716;9.648;2023-08-01T15:27:51;23.90;1.00
3684;DHT22;1858;48.716;9.648;2023-08-01T15:30:38;23.80;1.00
3684;DHT22;1858;48.716;9.648;2023-08-01T15:33:25;23.70;1.00
3684;DHT22;1858;48.716;9.648;2023-08-01T15:36:12;23.60;1.00
3684;DHT22;1858;48.716;9.648;2023-08-01T15:38:58;23.50;1.00
3684;DHT22;1858;48.716;9.648;2023-08-01T15:41:46;23.50;1.00
3684;DHT22;1858;48.716;9.648;2023-08-01T15:44:33;23.60;1.00
3684;DHT22;1858;48.716;9.648;2023-08-01T15:47:19;23.50;1.00
3684;DHT22;1858;48.716;9.648;2023-08-01T15:50:06;23.60;1.00
3684;DHT22;1858;48.716;9.648;2023-08-01T15:52:53;23.60;1.00
3684;DHT22;1858;48.716;9.648;2023-08-01T15:55:39;23.80;1.00
3684;DHT22;1858;48.716;9.648;2023-08-01T15:58:26;23.70;1.00
3684;DHT22;1858;48.716;9.648;2023-08-01T16:01:14;23.50;1.00
3684;DHT22;1858;48.716;9.648;2023-08-01T16:04:00;23.60;1.00
3684;DHT22;1858;48.716;9.648;2023-08-01T16:06:46;23.60;1.00
3684;DHT22;1858;48.716;9.648;2023-08-01T16:09:32;23.40;1.00
3684;DHT22;1858;48.716;9.648;2023-08-01T16:12:19;23.30;1.00
3684;DHT22;1858;48.716;9.648;2023-08-01T16:15:05;23.20;1.00
3684;DHT22;1858;48.716;9.648;2023-08-01T16:17:51;23.20;1.00
3684;DHT22;1858;48.716;9.648;2023-08-01T16:20:37;23.30;1.00
3684;DHT22;1858;48.716;9.648;2023-08-01T16:23:23;23.30;1.00
3684;DHT22;1858;48.716;9.648;2023-08-01T16:26:08;23.30;1.00
3684;DHT22;1858;48.716;9.648;2023-08-01T16:29:14;23.40;1.00
3684;DHT22;1858;48.716;9.648;2023-08-01T16:32:00;23.30;1.00
3684;DHT22;1858;48.716;9.648;2023-08-01T16:34:46;23.30;1.00
3684;DHT22;1858;48.716;9.648;2023-08-01T16:40:39;23.30;1.00
3684;DHT22;1858;48.716;9.648;2023-08-01T16:43:25;23.40;1.00
3684;DHT22;1858;48.716;9.648;2023-08-01T16:46:10;23.30;1.00
3684;DHT22;1858;48.716;9.648;2023-08-01T16:48:56;23.20;1.00
3684;DHT22;1858;48.716;9.648;2023-08-01T16:51:42;23.20;1.00
3684;DHT22;1858;48.716;9.648;2023-08-01T16:54:28;23.20;1.00
3684;DHT22;1858;48.716;9.648;2023-08-01T16:57:15;23.30;1.00
3684;DHT22;1858;48.716;9.648;2023-08-01T17:00:00;23.10;1.00
3684;DHT22;1858;48.716;9.648;2023-08-01T17:02:46;23.00;1.00
3684;DHT22;1858;48.716;9.648;2023-08-01T17:05:33;22.90;1.00
3684;DHT22;1858;48.716;9.648;2023-08-01T17:08:19;22.90;1.00
3684;DHT22;1858;48.716;9.648;2023-08-01T17:11:05;22.90;1.00
3684;DHT22;1858;48.716;9.648;2023-08-01T17:16:57;23.00;1.00
3684;DHT22;1858;48.716;9.648;2023-08-01T17:19:43;22.90;1.00
3684;DHT22;1858;48.716;9.648;2023-08-01T17:22:30;22.70;1.00
3684;DHT22;1858;48.716;9.648;2023-08-01T17:25:17;22.60;1.00
3684;DHT22;1858;48.716;9.648;2023-08-01T17:28:03;22.60;1.00
3684;DHT22;1858;48.716;9.648;2023-08-01T17:30:50;22.70;1.00
3684;DHT22;1858;48.716;9.648;2023-08-01T17:33:36;22.60;1.00
3684;DHT22;1858;48.716;9.648;2023-08-01T17:36:42;22.60;1.00
3684;DHT22;1858;48.716;9.648;2023-08-01T17:39:29;22.50;1.00
3684;DHT22;1858;48.716;9.648;2023-08-01T17:42:15;22.30;1.00
3684;DHT22;1858;48.716;9.648;2023-08-01T17:45:01;22.20;1.00
3684;DHT22;1858;48.716;9.648;2023-08-01T17:47:47;22.10;1.00
3684;DHT22;1858;48.716;9.648;2023-08-01T17:50:33;22.00;1.00
3684;DHT22;1858;48.716;9.648;2023-08-01T17:53:19;21.90;1.00
3684;DHT22;1858;48.716;9.648;2023-08-01T17:56:06;21.70;1.00
3684;DHT22;1858;48.716;9.648;2023-08-01T17:58:52;21.50;1.00
3684;DHT22;1858;48.716;9.648;2023-08-01T18:01:39;21.60;1.00
3684;DHT22;1858;48.716;9.648;2023-08-01T18:04:25;21.50;1.00
3684;DHT22;1858;48.716;9.648;2023-08-01T18:07:12;21.50;1.00
3684;DHT22;1858;48.716;9.648;2023-08-01T18:09:58;21.50;1.30
3684;DHT22;1858;48.716;9.648;2023-08-01T18:12:45;21.40;1.00
3684;DHT22;1858;48.716;9.648;2023-08-01T18:15:38;21.40;8.60
3684;DHT22;1858;48.716;9.648;2023-08-01T18:18:25;21.30;1.00
3684;DHT22;1858;48.716;9.648;2023-08-01T18:21:11;21.10;1.00
3684;DHT22;1858;48.716;9.648;2023-08-01T18:23:57;21.00;1.00
3684;DHT22;1858;48.716;9.648;2023-08-01T18:26:43;21.00;1.00
3684;DHT22;1858;48.716;9.648;2023-08-01T18:29:30;20.90;1.00
3684;DHT22;1858;48.716;9.648;2023-08-01T18:32:16;20.80;5.20
3684;DHT22;1858;48.716;9.648;2023-08-01T18:35:02;20.80;8.70
3684;DHT22;1858;48.716;9.648;2023-08-01T18:37:48;20.70;16.80
3684;DHT22;1858;48.716;9.648;2023-08-01T18:40:34;20.50;1.80
3684;DHT22;1858;48.716;9.648;2023-08-01T18:43:21;20.50;2.90
3684;DHT22;1858;48.716;9.648;2023-08-01T18:46:07;20.50;16.40